Warba, Kuwait

6:26 AM AST on July 31, 2014 (GMT +0300)
Abdally (IJAHRAAB2) Elev 46 ft | 30.03 °N, 47.75 °E | Change Station

Current weather conditions updated 8 minutes ago

Clear
Clear
86.7 °F
Feels Like 84 °F
N
0.0
Wind Variable Wind from SE
Gusts 0.0 mph

Today is forecast to be Warmer than yesterday.

Today
High -- | Low -- °F
--% Chance of Precip.
Yesterday
High -- | Low -- °F
Precip. -- in
5:05 AM 6:41 PM
Waxing Crescent, 15% visible
Pressure 29.42 in
Visibility 4.3 miles
Clouds Clear
Heat Index 84 °F
Dew Point 51 °F
Humidity 29%
Rainfall 0.00 in
Snow Depth Not available.
UV 1 out of 12
Pollen Not available.
Air Quality Not available.
Flu Activity Not available.
METAR OIAA 310300Z 17004KT 7000 SKC 29/25 Q0996

More Conditions Fewer Conditions

Pressure 29.42 in
Visibility 4.3 miles
Clouds Clear
Heat Index 84 °F
Dew Point 51 °F
Humidity 29%
Rainfall 0.00 in
Snow Depth Not available.
UV 1 out of 12
Pollen Not available.
Air Quality Not available.
Flu Activity Not available.
METAR OIAA 310300Z 17004KT 7000 SKC 29/25 Q0996

More Conditions Fewer Conditions

10-Day Weather Forecast

Almanac

Astronomy

Jul. 31, 2014 Rise Set
Actual Time 5:05 AM AST 6:41 PM AST
Civil Twilight 4:39 AM AST 7:07 PM AST
Nautical Twilight 4:08 AM AST 7:38 PM AST
Astronomical Twilight 3:35 AM AST 8:11 PM AST
Moon 8:50 AM AST 9:06 PM AST
Length of Visible Light 14h 28m
Length of Day
13h 35m
Tomorrow will be 1m 19s shorter.
Waxing Crescent, 15% of the Moon is Illuminated
Jul 30
Waxing Crescent
Aug 3
First Quarter
Aug 10
Full
Aug 17
Last Quarter
Aug 25
New

Yesterday's Extremes

Country Highs Country Lows

Community

WunderPhotos

Upload Photos

1,739,286 photos uploaded!

Nearby

Snow Depth

Not available.

Earthquake Activity

City Distance Mag. Time & Date
No recent earthquake activity has been reported nearby.
Minimum magnitude displayed is 2.5.

Coastal Water Temperatures

Place Temperature
No Stations Reporting

Nearby Weather Stations

Station Location Temp. Heat Index Dew Point Humidity Wind Precip. Elev Updated Type
Abdally, Abdally 86.7 °F 84 °F 51 °F 29% SE  at  0.0 mph 0.00 in / hr 46 ft 6:18 AM AST Normal

Show More Stations Show Fewer Stations